Time;durP1;ratioP1;P1;durP2;ratioP2;P2;SDS_P1;SDS_P2;PMS_P1;PMS_P2;Temp;Humidity;BMP_temperature;BMP_pressure;BME280_temperature;BME280_humidity;BME280_pressure;Samples;Min_cycle;Max_cycle;Signal;HPM_P1;HPM_P2
2024/01/28 00:01:57;;;;;;;13.20;5.70;;;0.90;99.90;;;;;;4936337;28;20047;-84
2024/01/28 00:04:24;;;;;;;11.90;5.07;;;0.90;99.90;;;;;;4937972;28;20055;-85
2024/01/28 00:06:50;;;;;;;12.70;5.60;;;0.90;99.90;;;;;;4969733;28;20039;-83
2024/01/28 00:09:16;;;;;;;12.10;5.83;;;0.90;99.90;;;;;;4955438;28;20058;-80
2024/01/28 00:11:43;;;;;;;16.47;6.90;;;0.90;99.90;;;;;;4957864;28;20058;-85
2024/01/28 00:14:09;;;;;;;16.63;7.03;;;1.00;99.90;;;;;;4941232;28;20047;-85
2024/01/28 00:16:36;;;;;;;17.40;6.63;;;1.00;99.90;;;;;;4939539;28;20595;-81
2024/01/28 00:19:02;;;;;;;18.23;6.47;;;1.00;99.90;;;;;;4938791;28;20039;-83
2024/01/28 00:21:29;;;;;;;13.90;6.40;;;1.00;99.90;;;;;;4967456;28;20039;-85
2024/01/28 00:23:56;;;;;;;12.63;5.73;;;1.00;99.90;;;;;;4936154;28;20039;-85
2024/01/28 00:26:23;;;;;;;9.17;5.97;;;1.00;99.90;;;;;;4968343;28;20046;-82
2024/01/28 00:28:49;;;;;;;10.37;5.80;;;1.00;99.90;;;;;;4984384;28;20375;-85
2024/01/28 00:31:16;;;;;;;12.43;5.87;;;1.00;99.90;;;;;;4968358;28;20050;-81
2024/01/28 00:33:42;;;;;;;12.87;5.90;;;1.00;99.90;;;;;;4951624;28;20050;-84
2024/01/28 00:36:15;;;;;;;11.40;5.80;;;1.00;99.90;;;;;;4952206;28;20709;-85
2024/01/28 00:38:42;;;;;;;10.50;5.50;;;1.00;99.90;;;;;;4968791;28;20522;-88
2024/01/28 00:41:08;;;;;;;11.83;5.90;;;1.00;99.90;;;;;;4969094;28;20418;-82
2024/01/28 00:43:34;;;;;;;11.33;5.07;;;0.90;99.90;;;;;;4951100;28;20054;-82
2024/01/28 00:46:00;;;;;;;12.97;6.03;;;0.90;99.90;;;;;;4934895;28;20054;-85
2024/01/28 00:48:27;;;;;;;13.20;6.20;;;0.90;99.90;;;;;;4949919;28;20047;-85
2024/01/28 00:50:53;;;;;;;11.97;6.73;;;0.90;99.90;;;;;;4982629;28;20047;-84
2024/01/28 00:53:19;;;;;;;11.47;5.23;;;0.90;99.90;;;;;;4967511;28;20404;-82
2024/01/28 00:55:46;;;;;;;13.73;6.03;;;0.80;99.90;;;;;;4935320;28;20506;-83
2024/01/28 00:58:12;;;;;;;12.57;6.80;;;0.80;99.90;;;;;;4968979;28;20043;-84
2024/01/28 01:00:40;;;;;;;14.20;7.23;;;0.90;99.90;;;;;;4948974;28;20137;-80
2024/01/28 01:03:07;;;;;;;11.60;5.97;;;0.80;99.90;;;;;;4968993;28;20505;-85
2024/01/28 01:05:34;;;;;;;14.93;6.40;;;0.80;99.90;;;;;;4969338;28;20043;-80
2024/01/28 01:08:00;;;;;;;12.07;5.03;;;0.90;99.90;;;;;;4970009;28;20039;-82
2024/01/28 01:10:26;;;;;;;11.90;6.00;;;0.80;99.90;;;;;;4953172;28;20410;-86
2024/01/28 01:12:53;;;;;;;11.33;5.07;;;0.80;99.90;;;;;;4952792;28;20501;-81
2024/01/28 01:15:19;;;;;;;7.60;3.90;;;0.80;99.90;;;;;;4938645;28;20035;-85
2024/01/28 01:17:49;;;;;;;12.30;5.37;;;0.70;99.90;;;;;;4951750;28;20035;-80
2024/01/28 01:20:17;;;;;;;10.23;5.43;;;0.70;99.90;;;;;;4953602;28;20572;-85
2024/01/28 01:22:44;;;;;;;10.97;5.50;;;0.70;99.90;;;;;;4938393;28;20039;-80
2024/01/28 01:25:13;;;;;;;12.67;5.80;;;0.70;99.90;;;;;;4952461;28;20058;-84
2024/01/28 01:27:40;;;;;;;10.47;4.87;;;0.70;99.90;;;;;;4967901;28;20494;-81
2024/01/28 01:30:08;;;;;;;11.87;5.90;;;0.70;99.90;;;;;;4951305;28;20047;-83
2024/01/28 01:32:37;;;;;;;11.47;5.50;;;0.70;99.90;;;;;;4951553;28;20046;-84
2024/01/28 01:35:03;;;;;;;9.43;4.60;;;0.60;99.90;;;;;;4966517;28;20039;-85
2024/01/28 01:37:30;;;;;;;10.13;5.10;;;0.60;99.90;;;;;;4937173;28;20042;-89
2024/01/28 01:39:56;;;;;;;10.50;5.10;;;0.60;99.90;;;;;;4948317;28;20050;-85
2024/01/28 01:42:23;;;;;;;8.33;4.67;;;0.60;99.90;;;;;;4948228;28;20031;-80
2024/01/28 01:44:49;;;;;;;10.60;4.50;;;0.60;99.90;;;;;;4968136;28;20035;-88
2024/01/28 01:47:16;;;;;;;8.90;4.73;;;0.50;99.90;;;;;;4967382;28;20035;-85
2024/01/28 01:49:43;;;;;;;10.90;4.73;;;0.50;99.90;;;;;;4952591;28;20070;-80
2024/01/28 01:52:10;;;;;;;10.27;4.73;;;0.50;99.90;;;;;;4936829;28;20039;-86
2024/01/28 01:54:36;;;;;;;10.33;4.67;;;0.50;99.90;;;;;;4951822;28;20043;-86
2024/01/28 01:57:03;;;;;;;9.03;4.50;;;0.50;99.90;;;;;;4967890;28;20407;-84
2024/01/28 01:59:30;;;;;;;9.07;4.60;;;0.50;99.90;;;;;;4947712;28;20054;-86
2024/01/28 02:01:59;;;;;;;7.30;4.43;;;0.50;99.90;;;;;;4984010;28;20042;-84
2024/01/28 02:04:25;;;;;;;12.70;4.90;;;0.50;99.90;;;;;;4935903;28;20050;-86
2024/01/28 02:06:52;;;;;;;8.57;3.80;;;0.50;99.90;;;;;;4955632;28;20032;-86
2024/01/28 02:09:18;;;;;;;9.70;4.10;;;0.50;99.90;;;;;;4972995;28;20046;-86
2024/01/28 02:11:45;;;;;;;7.93;3.40;;;0.50;99.90;;;;;;4971205;28;20039;-84
2024/01/28 02:14:28;;;;;;;7.97;3.80;;;0.50;99.90;;;;;;4986444;28;20023;-87
2024/01/28 02:16:55;;;;;;;9.15;3.85;;;0.40;99.90;;;;;;4955567;28;20039;-86
2024/01/28 02:19:21;;;;;;;10.37;3.87;;;0.40;99.90;;;;;;4971707;28;20035;-88
2024/01/28 02:21:47;;;;;;;9.43;3.43;;;0.50;99.90;;;;;;4939842;28;20078;-87
2024/01/28 02:24:15;;;;;;;9.87;4.57;;;0.40;99.90;;;;;;4971141;28;20645;-80
2024/01/28 02:26:41;;;;;;;9.07;4.73;;;0.40;99.90;;;;;;4982640;28;20061;-83
2024/01/28 02:29:08;;;;;;;11.97;4.87;;;0.40;99.90;;;;;;4970244;28;20048;-85
2024/01/28 02:31:34;;;;;;;17.07;5.57;;;0.40;99.90;;;;;;4939567;28;20055;-83
2024/01/28 02:34:00;;;;;;;9.17;5.27;;;0.40;99.90;;;;;;4939851;28;20031;-87
2024/01/28 02:36:28;;;;;;;13.70;4.67;;;0.40;99.90;;;;;;4953809;28;20729;-81
2024/01/28 02:38:55;;;;;;;14.03;4.70;;;0.40;99.90;;;;;;4967176;28;20047;-83
2024/01/28 02:41:22;;;;;;;7.23;3.90;;;0.40;99.90;;;;;;4953790;28;20069;-85
2024/01/28 02:43:48;;;;;;;8.87;3.80;;;0.30;99.90;;;;;;4952607;28;20063;-84
2024/01/28 02:46:14;;;;;;;8.00;3.93;;;0.30;99.90;;;;;;4969513;28;20059;-83
2024/01/28 02:48:41;;;;;;;10.03;4.07;;;0.30;99.90;;;;;;4951414;28;20051;-85
2024/01/28 02:51:07;;;;;;;9.73;3.50;;;0.30;99.90;;;;;;4953129;28;20047;-85
2024/01/28 02:53:34;;;;;;;8.20;4.00;;;0.30;99.90;;;;;;4952491;28;20050;-83
2024/01/28 02:56:00;;;;;;;11.33;5.80;;;0.30;99.90;;;;;;4953326;28;20038;-86
2024/01/28 02:58:27;;;;;;;9.80;4.97;;;0.30;99.90;;;;;;4951757;28;20403;-81
2024/01/28 03:00:53;;;;;;;12.90;4.83;;;0.30;99.90;;;;;;4953342;28;20046;-84
2024/01/28 03:03:19;;;;;;;11.90;5.60;;;0.30;99.90;;;;;;4950950;28;20039;-82
2024/01/28 03:05:46;;;;;;;9.40;5.70;;;0.40;99.90;;;;;;4937132;28;20039;-84
2024/01/28 03:08:12;;;;;;;13.03;5.20;;;0.40;99.90;;;;;;4953697;28;20513;-84
2024/01/28 03:10:39;;;;;;;8.80;4.30;;;0.40;99.90;;;;;;4938284;28;20039;-86
2024/01/28 03:13:05;;;;;;;13.37;4.90;;;0.40;99.90;;;;;;4969833;28;20039;-82
2024/01/28 03:15:32;;;;;;;11.17;6.20;;;0.40;99.90;;;;;;4972888;28;20031;-85
2024/01/28 03:17:58;;;;;;;12.10;4.73;;;0.40;99.90;;;;;;4941898;28;20046;-86
2024/01/28 03:20:26;;;;;;;9.67;4.47;;;0.40;99.90;;;;;;4956107;28;20035;-84
2024/01/28 03:22:52;;;;;;;10.87;4.73;;;0.40;99.90;;;;;;4955953;28;22846;-82
2024/01/28 03:25:19;;;;;;;9.87;4.37;;;0.40;99.90;;;;;;4939648;28;20042;-84
2024/01/28 03:27:46;;;;;;;9.40;4.07;;;0.30;99.90;;;;;;4952418;28;20039;-85
2024/01/28 03:30:12;;;;;;;8.13;3.93;;;0.30;99.90;;;;;;4972700;28;20062;-84
2024/01/28 03:32:39;;;;;;;12.03;3.90;;;0.20;99.90;;;;;;4972388;28;20335;-84
2024/01/28 03:35:06;;;;;;;9.77;4.53;;;0.20;99.90;;;;;;4940533;28;20050;-86
2024/01/28 03:37:33;;;;;;;8.73;4.27;;;0.20;99.90;;;;;;4940739;28;20042;-81
2024/01/28 03:39:59;;;;;;;12.10;4.10;;;0.20;99.90;;;;;;4955705;28;20057;-85
2024/01/28 03:42:26;;;;;;;13.33;3.97;;;0.20;99.90;;;;;;4954751;28;20039;-82
2024/01/28 03:44:52;;;;;;;11.20;3.83;;;0.20;99.90;;;;;;4955328;28;20035;-84
2024/01/28 03:47:19;;;;;;;7.77;4.30;;;0.10;99.90;;;;;;4940514;29;20034;-84
2024/01/28 03:49:46;;;;;;;6.50;3.07;;;0.10;99.90;;;;;;4954840;28;20050;-84
2024/01/28 03:52:12;;;;;;;7.83;4.03;;;0.10;99.90;;;;;;4954486;28;20385;-87
2024/01/28 03:54:38;;;;;;;13.13;4.63;;;0.10;99.90;;;;;;4955956;28;20066;-84
2024/01/28 03:57:05;;;;;;;4.70;2.93;;;0.10;99.90;;;;;;4955214;28;20696;-82
2024/01/28 03:59:31;;;;;;;15.00;4.10;;;0.10;99.90;;;;;;4939381;28;20039;-83
2024/01/28 04:01:57;;;;;;;10.30;4.47;;;0.10;99.90;;;;;;4941785;29;20057;-84
2024/01/28 04:04:24;;;;;;;7.23;3.70;;;0.10;99.90;;;;;;4975214;28;20039;-87
2024/01/28 04:06:50;;;;;;;8.13;3.87;;;0.10;99.90;;;;;;4977830;28;20055;-78
2024/01/28 04:09:16;;;;;;;8.17;4.13;;;0.10;99.90;;;;;;4942960;28;20043;-82
2024/01/28 04:11:42;;;;;;;8.63;4.33;;;0.10;99.90;;;;;;4958450;28;20047;-84
2024/01/28 04:14:09;;;;;;;8.97;4.50;;;0.00;99.90;;;;;;4973209;28;20027;-83
2024/01/28 04:16:35;;;;;;;7.33;2.83;;;0.00;99.90;;;;;;4939037;28;20051;-84
2024/01/28 04:19:02;;;;;;;13.47;5.57;;;0.00;99.90;;;;;;4920794;29;20043;-84
2024/01/28 04:21:29;;;;;;;11.47;4.53;;;0.10;99.90;;;;;;4940616;28;20031;-83
2024/01/28 04:23:56;;;;;;;12.80;5.10;;;0.10;99.90;;;;;;4954325;28;20046;-83
2024/01/28 04:26:23;;;;;;;8.87;4.10;;;0.10;99.90;;;;;;4937115;28;20047;-83
2024/01/28 04:28:50;;;;;;;9.73;4.40;;;0.10;99.90;;;;;;4954478;28;20038;-80
2024/01/28 04:31:16;;;;;;;8.73;4.80;;;0.20;99.90;;;;;;4939105;28;20131;-82
2024/01/28 04:33:42;;;;;;;7.87;4.57;;;0.20;99.90;;;;;;4954594;28;20046;-86
2024/01/28 04:36:09;;;;;;;9.53;4.17;;;0.20;99.90;;;;;;4954981;28;20039;-84
2024/01/28 04:38:35;;;;;;;12.20;4.77;;;0.10;99.90;;;;;;4953597;28;20058;-84
2024/01/28 04:41:02;;;;;;;9.43;4.23;;;0.10;99.90;;;;;;4938332;28;20035;-79
2024/01/28 04:43:30;;;;;;;13.20;5.20;;;0.10;99.90;;;;;;4969984;28;20482;-84
2024/01/28 04:45:56;;;;;;;9.53;4.10;;;0.20;99.90;;;;;;4939864;28;20035;-80
2024/01/28 04:48:23;;;;;;;10.63;5.60;;;0.20;99.90;;;;;;4954215;28;20031;-82
2024/01/28 04:50:49;;;;;;;6.30;3.47;;;0.20;99.90;;;;;;4970429;28;20043;-81
2024/01/28 04:53:15;;;;;;;12.17;5.10;;;0.20;99.90;;;;;;4919496;29;20364;-85
2024/01/28 04:55:42;;;;;;;16.03;5.53;;;0.30;99.90;;;;;;4986983;28;20035;-85
2024/01/28 04:58:08;;;;;;;11.03;6.60;;;0.20;99.90;;;;;;4952915;28;20403;-84
2024/01/28 05:00:34;;;;;;;10.70;5.93;;;0.30;99.90;;;;;;4952645;28;20040;-84
2024/01/28 05:03:01;;;;;;;12.57;5.50;;;0.30;99.90;;;;;;4953752;28;20484;-85
2024/01/28 05:05:27;;;;;;;11.17;5.23;;;0.30;99.90;;;;;;4986172;28;20035;-83
2024/01/28 05:07:53;;;;;;;8.63;5.27;;;0.30;99.90;;;;;;4939335;28;20039;-84
2024/01/28 05:10:20;;;;;;;8.87;4.57;;;0.30;99.90;;;;;;4951552;28;20046;-82
2024/01/28 05:12:48;;;;;;;9.40;5.77;;;0.30;99.90;;;;;;4969575;28;20035;-84
2024/01/28 05:15:16;;;;;;;16.10;5.53;;;0.30;99.90;;;;;;4986493;28;20035;-83
2024/01/28 05:17:44;;;;;;;12.17;5.30;;;0.30;99.90;;;;;;4969673;28;20390;-84
2024/01/28 05:20:11;;;;;;;7.93;4.87;;;0.30;99.90;;;;;;4952177;28;20051;-81
2024/01/28 05:22:38;;;;;;;10.97;5.10;;;0.30;99.90;;;;;;4935501;28;20045;-85
2024/01/28 05:25:05;;;;;;;11.13;5.23;;;0.30;99.90;;;;;;4953076;28;20035;-85
2024/01/28 05:27:32;;;;;;;10.90;4.70;;;0.30;99.90;;;;;;4939303;28;20046;-82
2024/01/28 05:29:59;;;;;;;9.23;4.90;;;0.30;99.90;;;;;;4953381;28;20047;-83
2024/01/28 05:32:26;;;;;;;10.43;4.80;;;0.30;99.90;;;;;;4969569;28;20050;-85
2024/01/28 05:34:54;;;;;;;11.37;4.90;;;0.30;99.90;;;;;;4969649;28;20031;-85
2024/01/28 05:37:20;;;;;;;10.47;5.27;;;0.30;99.90;;;;;;4952293;28;20034;-84
2024/01/28 05:39:46;;;;;;;10.63;4.77;;;0.30;99.90;;;;;;4949643;28;20042;-85
2024/01/28 05:42:13;;;;;;;9.43;5.07;;;0.30;99.90;;;;;;4952578;28;20047;-84
2024/01/28 05:44:39;;;;;;;9.90;4.87;;;0.30;99.90;;;;;;4969664;28;20376;-85
2024/01/28 05:47:06;;;;;;;8.23;4.50;;;0.30;99.90;;;;;;4953066;28;20031;-80
2024/01/28 05:49:33;;;;;;;8.37;3.93;;;0.20;99.90;;;;;;4968953;28;20039;-85
2024/01/28 05:51:59;;;;;;;11.80;3.60;;;0.20;99.90;;;;;;4970392;28;20035;-85
2024/01/28 05:54:26;;;;;;;8.50;3.47;;;0.20;99.90;;;;;;4970141;28;20031;-86
2024/01/28 05:56:52;;;;;;;6.70;3.50;;;0.20;99.90;;;;;;4954759;28;20163;-85
2024/01/28 05:59:18;;;;;;;7.30;3.60;;;0.20;99.90;;;;;;4972188;28;20093;-83
2024/01/28 06:01:45;;;;;;;9.93;3.93;;;0.20;99.90;;;;;;4943498;28;20050;-83
2024/01/28 06:04:11;;;;;;;9.20;4.67;;;0.20;99.90;;;;;;4943859;28;20131;-79
2024/01/28 06:06:37;;;;;;;6.53;4.37;;;0.20;99.90;;;;;;4959146;28;20079;-84
2024/01/28 06:09:04;;;;;;;10.57;4.43;;;0.20;99.90;;;;;;4971921;28;20240;-84
2024/01/28 06:11:31;;;;;;;7.90;3.60;;;0.20;99.90;;;;;;4940605;28;20237;-83
2024/01/28 06:13:58;;;;;;;10.20;4.73;;;0.20;99.90;;;;;;4951624;28;20031;-85
2024/01/28 06:16:25;;;;;;;11.43;5.10;;;0.20;99.90;;;;;;4969724;28;20046;-84
2024/01/28 06:18:51;;;;;;;10.67;5.57;;;0.20;99.90;;;;;;4950761;28;20031;-83
2024/01/28 06:21:17;;;;;;;11.27;5.63;;;0.20;99.90;;;;;;4951958;28;20038;-81
2024/01/28 06:23:44;;;;;;;14.00;6.33;;;0.20;99.90;;;;;;4937350;28;20043;-85
2024/01/28 06:26:10;;;;;;;17.63;5.77;;;0.30;99.90;;;;;;4952913;28;20070;-85
2024/01/28 06:28:36;;;;;;;11.90;5.67;;;0.30;99.90;;;;;;4952922;28;20031;-85
2024/01/28 06:31:03;;;;;;;7.40;3.97;;;0.30;99.90;;;;;;4938119;29;20228;-84
2024/01/28 06:33:29;;;;;;;10.53;4.20;;;0.30;99.90;;;;;;4954609;28;20039;-84
2024/01/28 06:35:55;;;;;;;10.53;5.23;;;0.30;99.90;;;;;;4937829;28;20550;-84
2024/01/28 06:38:22;;;;;;;12.63;4.87;;;0.30;99.90;;;;;;4933991;28;20074;-86
2024/01/28 06:40:48;;;;;;;9.83;5.57;;;0.30;99.90;;;;;;4952643;28;20035;-85
2024/01/28 06:43:14;;;;;;;11.70;5.10;;;0.30;99.90;;;;;;4968499;28;20039;-82
2024/01/28 06:45:41;;;;;;;11.27;6.17;;;0.30;99.90;;;;;;4952756;28;20043;-85
2024/01/28 06:48:07;;;;;;;15.27;6.30;;;0.30;99.90;;;;;;4968421;28;20039;-83
2024/01/28 06:50:33;;;;;;;13.17;6.50;;;0.40;99.90;;;;;;4962949;28;20051;-82
2024/01/28 06:53:01;;;;;;;14.97;6.23;;;0.40;99.90;;;;;;4972906;28;20054;-83
2024/01/28 06:55:28;;;;;;;11.33;5.80;;;0.40;99.90;;;;;;4956756;28;20045;-83
2024/01/28 06:57:54;;;;;;;12.53;6.03;;;0.40;99.90;;;;;;4941530;28;20035;-86
2024/01/28 07:00:21;;;;;;;12.17;5.77;;;0.40;99.90;;;;;;4942221;28;20632;-82
2024/01/28 07:02:49;;;;;;;10.10;5.00;;;0.40;99.90;;;;;;4968527;28;20039;-87
2024/01/28 07:05:15;;;;;;;9.03;4.57;;;0.40;99.90;;;;;;4973264;28;20346;-84
2024/01/28 07:07:42;;;;;;;11.50;4.90;;;0.40;99.90;;;;;;4972709;28;20035;-83
2024/01/28 07:10:09;;;;;;;10.00;4.77;;;0.50;99.90;;;;;;4941923;28;20834;-84
2024/01/28 07:12:36;;;;;;;11.77;5.70;;;0.50;99.90;;;;;;4954624;28;20039;-86
2024/01/28 07:15:03;;;;;;;11.13;5.07;;;0.40;99.90;;;;;;4938689;28;20046;-86
2024/01/28 07:17:29;;;;;;;10.50;5.13;;;0.50;99.90;;;;;;4955312;28;20035;-85
2024/01/28 07:19:55;;;;;;;12.40;5.33;;;0.50;99.90;;;;;;4970538;28;20529;-85
2024/01/28 07:22:22;;;;;;;12.00;5.33;;;0.50;99.90;;;;;;4972263;28;20043;-88
2024/01/28 07:24:49;;;;;;;10.10;4.77;;;0.50;99.90;;;;;;4955982;28;20062;-86
2024/01/28 07:27:16;;;;;;;11.30;4.57;;;0.50;99.90;;;;;;4939222;28;20062;-83
2024/01/28 07:29:43;;;;;;;12.27;5.20;;;0.50;99.90;;;;;;4972286;28;20039;-82
2024/01/28 07:32:13;;;;;;;8.80;4.90;;;0.60;99.90;;;;;;4953688;28;20042;-84
2024/01/28 07:34:42;;;;;;;13.63;4.80;;;0.60;99.90;;;;;;4955193;28;20061;-86
2024/01/28 07:37:09;;;;;;;10.00;5.27;;;0.60;99.90;;;;;;4972669;28;20150;-84
2024/01/28 07:39:35;;;;;;;14.90;5.27;;;0.70;99.90;;;;;;4953845;28;20046;-81
2024/01/28 07:42:01;;;;;;;10.20;4.27;;;0.70;99.90;;;;;;4987823;28;20039;-82
2024/01/28 07:44:27;;;;;;;11.93;4.60;;;0.80;99.90;;;;;;4971701;28;20039;-83
2024/01/28 07:46:54;;;;;;;7.13;4.70;;;0.90;99.90;;;;;;4955759;28;20027;-85
2024/01/28 07:49:20;;;;;;;9.27;4.57;;;0.90;99.90;;;;;;4971697;28;20035;-80
2024/01/28 07:51:46;;;;;;;10.13;4.30;;;1.00;99.90;;;;;;4954818;28;20074;-83
2024/01/28 07:54:13;;;;;;;8.13;5.20;;;1.10;99.90;;;;;;4955086;28;20032;-82
2024/01/28 07:56:39;;;;;;;11.40;4.07;;;1.20;99.90;;;;;;4973151;28;20035;-83
2024/01/28 07:59:06;;;;;;;9.23;5.40;;;1.30;99.90;;;;;;4977329;28;20039;-84
2024/01/28 08:01:32;;;;;;;6.83;3.60;;;1.40;99.90;;;;;;4956239;28;20027;-81
2024/01/28 08:03:59;;;;;;;9.67;3.37;;;1.50;99.90;;;;;;4955600;28;20394;-80
2024/01/28 08:06:26;;;;;;;9.17;3.60;;;1.60;99.90;;;;;;4971306;28;20589;-81
2024/01/28 08:08:53;;;;;;;8.97;4.30;;;1.70;99.90;;;;;;4940122;28;20039;-82
2024/01/28 08:11:19;;;;;;;9.93;3.60;;;1.70;99.90;;;;;;4953310;28;20030;-80
2024/01/28 08:13:45;;;;;;;9.50;4.43;;;1.80;99.90;;;;;;4968830;28;20058;-83
2024/01/28 08:16:12;;;;;;;9.77;4.47;;;1.90;99.90;;;;;;4953414;28;20047;-82
2024/01/28 08:18:39;;;;;;;12.60;5.50;;;2.00;99.90;;;;;;4970750;28;20602;-82
2024/01/28 08:21:05;;;;;;;9.73;4.27;;;2.10;99.90;;;;;;4954097;28;20039;-83
2024/01/28 08:23:34;;;;;;;8.00;3.77;;;2.10;99.90;;;;;;4950663;28;20039;-81
2024/01/28 08:26:00;;;;;;;8.40;3.70;;;2.10;99.90;;;;;;4969712;28;20066;-83
2024/01/28 08:28:26;;;;;;;9.30;3.63;;;2.20;99.90;;;;;;4954111;28;20035;-81
2024/01/28 08:30:53;;;;;;;7.63;3.47;;;2.20;99.90;;;;;;4985853;28;20047;-80
2024/01/28 08:33:19;;;;;;;10.60;4.30;;;2.20;99.90;;;;;;4969154;28;20031;-81
2024/01/28 08:35:45;;;;;;;10.53;3.53;;;2.30;99.90;;;;;;4953293;28;20372;-83
2024/01/28 08:38:12;;;;;;;7.70;3.80;;;2.30;99.90;;;;;;4953004;28;20039;-84
2024/01/28 08:40:38;;;;;;;8.77;4.17;;;2.30;99.90;;;;;;4950160;28;20042;-83
2024/01/28 08:43:07;;;;;;;12.30;5.20;;;2.30;99.90;;;;;;4966754;28;20038;-82
2024/01/28 08:45:33;;;;;;;9.87;5.37;;;2.30;99.90;;;;;;4939288;28;20474;-83
2024/01/28 08:48:00;;;;;;;10.60;5.70;;;2.40;99.90;;;;;;4938621;28;20494;-84
2024/01/28 08:50:26;;;;;;;9.97;4.30;;;2.40;99.90;;;;;;4952964;28;20418;-85
2024/01/28 08:52:52;;;;;;;11.13;3.80;;;2.40;99.90;;;;;;4981925;28;20479;-85
2024/01/28 08:55:19;;;;;;;12.43;4.27;;;2.40;99.90;;;;;;4970205;28;20388;-83
2024/01/28 08:57:45;;;;;;;8.10;3.47;;;2.30;99.90;;;;;;4969928;28;20490;-82
2024/01/28 09:00:12;;;;;;;9.30;3.43;;;2.40;99.90;;;;;;4933750;28;20335;-83
2024/01/28 09:02:39;;;;;;;9.93;4.40;;;2.40;99.90;;;;;;4969042;28;20035;-84
2024/01/28 09:05:07;;;;;;;9.50;4.07;;;2.50;99.90;;;;;;4933898;28;20050;-82
2024/01/28 09:07:34;;;;;;;10.27;3.73;;;2.60;99.90;;;;;;4969107;28;20046;-81
2024/01/28 09:10:01;;;;;;;10.07;4.83;;;2.60;99.90;;;;;;4968954;28;20384;-77
2024/01/28 09:12:27;;;;;;;8.57;4.43;;;2.70;99.90;;;;;;4952159;28;20534;-83
2024/01/28 09:14:53;;;;;;;8.52;4.18;;;2.80;99.90;;;;;;4969137;28;20046;-83
2024/01/28 09:17:20;;;;;;;7.07;4.17;;;2.80;99.90;;;;;;4935864;28;20719;-80
2024/01/28 09:19:46;;;;;;;9.52;4.10;;;2.90;99.90;;;;;;4969471;28;20040;-79
2024/01/28 09:22:12;;;;;;;17.50;7.57;;;3.00;99.90;;;;;;4968718;28;20035;-78
2024/01/28 09:24:39;;;;;;;11.38;5.97;;;3.00;99.90;;;;;;4969018;28;20035;-82
2024/01/28 09:27:06;;;;;;;10.57;4.97;;;3.10;99.90;;;;;;4951171;28;20062;-82
2024/01/28 09:29:32;;;;;;;14.17;5.70;;;3.10;99.90;;;;;;4969522;28;21307;-83
2024/01/28 09:31:59;;;;;;;12.57;5.05;;;3.20;99.90;;;;;;4936270;28;20526;-82
2024/01/28 09:34:25;;;;;;;8.07;4.73;;;3.30;99.90;;;;;;4969403;28;20525;-81
2024/01/28 09:36:51;;;;;;;9.50;4.33;;;3.30;99.90;;;;;;4969204;28;20043;-81
2024/01/28 09:39:18;;;;;;;9.50;4.28;;;3.40;99.90;;;;;;4969080;28;20034;-79
2024/01/28 09:41:55;;;;;;;6.43;3.33;;;3.40;99.90;;;;;;4952793;28;20478;-83
2024/01/28 09:44:21;;;;;;;10.77;3.67;;;3.40;99.90;;;;;;4938311;28;20043;-85
2024/01/28 09:46:48;;;;;;;7.40;3.33;;;3.50;99.90;;;;;;4953362;28;20035;-83
2024/01/28 09:49:16;;;;;;;9.18;3.83;;;3.50;99.90;;;;;;4969051;28;20403;-85
2024/01/28 09:51:43;;;;;;;7.65;4.13;;;3.60;99.90;;;;;;4952461;28;20039;-82
2024/01/28 09:54:12;;;;;;;9.77;3.33;;;3.70;99.90;;;;;;4938432;28;20046;-81
2024/01/28 09:56:41;;;;;;;8.77;3.90;;;3.70;99.90;;;;;;4970442;28;20342;-83
2024/01/28 09:59:09;;;;;;;6.47;3.00;;;3.80;99.90;;;;;;4969058;28;20039;-81
2024/01/28 10:01:36;;;;;;;9.05;3.78;;;3.90;99.90;;;;;;4951099;28;20058;-84
2024/01/28 10:04:02;;;;;;;9.75;3.20;;;4.00;99.90;;;;;;4952948;28;20027;-86
2024/01/28 10:06:28;;;;;;;5.93;2.72;;;4.10;99.90;;;;;;4951868;28;20038;-80
2024/01/28 10:08:55;;;;;;;11.25;3.13;;;4.30;99.90;;;;;;4945237;28;20035;-83
2024/01/28 10:11:21;;;;;;;7.13;2.42;;;4.50;99.90;;;;;;4932070;28;20039;-85
2024/01/28 10:13:48;;;;;;;6.63;2.80;;;4.80;99.90;;;;;;4949434;28;20035;-85
2024/01/28 10:16:14;;;;;;;11.85;3.95;;;5.20;99.90;;;;;;4949647;28;20438;-82
2024/01/28 10:18:40;;;;;;;13.88;5.70;;;5.50;99.90;;;;;;4966680;28;20042;-81
2024/01/28 10:21:07;;;;;;;12.80;5.45;;;5.90;99.90;;;;;;4950273;28;21297;-82
2024/01/28 10:23:37;;;;;;;10.38;4.63;;;6.30;99.90;;;;;;4967236;28;20043;-83
2024/01/28 10:26:05;;;;;;;7.28;3.10;;;6.70;99.90;;;;;;4952894;28;20039;-81
2024/01/28 10:28:32;;;;;;;8.30;3.03;;;7.00;99.90;;;;;;4986365;28;20039;-83
2024/01/28 10:30:58;;;;;;;4.70;2.50;;;7.40;99.90;;;;;;4950459;28;20039;-83
2024/01/28 10:33:25;;;;;;;8.40;2.28;;;7.70;99.90;;;;;;4952984;28;20036;-81
2024/01/28 10:35:52;;;;;;;11.77;3.15;;;7.90;99.90;;;;;;4937078;28;20039;-82
2024/01/28 10:38:22;;;;;;;10.70;4.32;;;8.10;99.90;;;;;;4971262;28;20035;-82
2024/01/28 10:40:50;;;;;;;10.50;4.18;;;8.40;99.90;;;;;;4938847;28;20050;-81
2024/01/28 10:43:25;;;;;;;9.32;4.78;;;8.60;99.90;;;;;;4953404;28;20051;-78
2024/01/28 10:45:55;;;;;;;8.32;5.20;;;8.70;99.90;;;;;;4969717;28;20046;-81
2024/01/28 10:48:23;;;;;;;5.70;3.75;;;8.90;99.90;;;;;;4940191;28;20035;-83
2024/01/28 10:50:51;;;;;;;5.40;2.95;;;9.10;99.90;;;;;;4953719;28;20043;-83
2024/01/28 10:53:23;;;;;;;9.82;3.58;;;9.40;99.90;;;;;;4968537;28;20042;-82
2024/01/28 10:55:52;;;;;;;8.55;2.72;;;9.60;99.90;;;;;;4953026;28;20035;-82
2024/01/28 10:58:20;;;;;;;5.30;1.92;;;9.70;99.90;;;;;;4987539;28;20039;-81
2024/01/28 11:00:47;;;;;;;13.85;3.50;;;9.50;99.90;;;;;;4970806;28;20047;-81
2024/01/28 11:03:15;;;;;;;9.07;2.45;;;9.00;99.90;;;;;;4939182;28;20039;-82
2024/01/28 11:05:42;;;;;;;9.02;2.97;;;8.60;99.90;;;;;;4970367;28;20038;-81
2024/01/28 11:08:08;;;;;;;7.90;2.20;;;8.10;99.90;;;;;;4971702;28;20031;-83
2024/01/28 11:10:35;;;;;;;3.97;1.80;;;7.70;99.90;;;;;;4940940;28;20483;-83
2024/01/28 11:13:04;;;;;;;6.60;1.80;;;7.40;99.90;;;;;;4971427;28;20509;-83
2024/01/28 11:15:32;;;;;;;6.05;2.25;;;7.10;99.90;;;;;;4971121;28;20023;-83
2024/01/28 11:18:06;;;;;;;4.95;1.88;;;6.90;99.90;;;;;;4956220;28;20035;-83
2024/01/28 11:20:33;;;;;;;5.38;1.70;;;6.80;99.90;;;;;;4972198;28;20052;-81
2024/01/28 11:23:00;;;;;;;5.18;2.28;;;6.70;99.90;;;;;;4939542;28;20102;-82
2024/01/28 11:25:28;;;;;;;9.27;4.60;;;6.60;99.90;;;;;;4952113;28;20471;-81
2024/01/28 11:27:58;;;;;;;11.88;5.45;;;6.50;99.90;;;;;;4953124;28;20050;-81
2024/01/28 11:30:25;;;;;;;5.38;3.38;;;6.50;99.90;;;;;;4939634;28;20085;-82
2024/01/28 11:33:09;;;;;;;11.27;4.35;;;6.40;99.90;;;;;;4953374;28;20031;-81
2024/01/28 11:35:36;;;;;;;12.40;4.85;;;6.30;99.90;;;;;;4968296;28;20047;-82
2024/01/28 11:38:06;;;;;;;9.43;3.70;;;6.30;99.90;;;;;;4970848;28;20031;-82
2024/01/28 11:40:36;;;;;;;5.75;2.85;;;6.30;99.90;;;;;;4937875;28;20038;-83
2024/01/28 11:43:06;;;;;;;6.38;1.98;;;6.30;99.90;;;;;;4920749;29;20062;-83
2024/01/28 11:45:33;;;;;;;6.38;2.70;;;6.30;99.90;;;;;;4954044;28;20043;-83
2024/01/28 11:48:09;;;;;;;6.05;1.80;;;6.30;99.90;;;;;;4939617;28;20027;-82
2024/01/28 11:50:36;;;;;;;5.35;2.42;;;6.30;99.90;;;;;;4988199;28;20039;-83
2024/01/28 11:53:05;;;;;;;7.35;2.22;;;6.20;99.90;;;;;;4960675;28;20478;-82
2024/01/28 11:55:33;;;;;;;7.68;2.22;;;6.30;99.90;;;;;;4972684;28;20612;-82
2024/01/28 11:57:59;;;;;;;3.70;1.77;;;6.30;99.90;;;;;;4953670;28;20027;-81
2024/01/28 12:00:26;;;;;;;5.05;2.50;;;6.30;99.90;;;;;;4970474;28;20446;-80
2024/01/28 12:02:53;;;;;;;5.00;1.90;;;6.30;99.90;;;;;;4968323;28;20054;-83
2024/01/28 12:05:19;;;;;;;6.88;2.05;;;6.30;99.90;;;;;;4953157;28;20035;-81
2024/01/28 12:07:46;;;;;;;6.00;2.15;;;6.30;99.90;;;;;;4953434;28;20039;-81
2024/01/28 12:10:13;;;;;;;6.40;2.13;;;6.30;99.90;;;;;;4969533;28;20039;-82
2024/01/28 12:12:40;;;;;;;7.47;2.58;;;6.30;99.90;;;;;;4951697;28;20050;-83
2024/01/28 12:15:07;;;;;;;7.63;2.70;;;6.30;99.90;;;;;;4969647;28;20049;-82
2024/01/28 12:17:39;;;;;;;7.45;2.47;;;6.30;99.90;;;;;;4951444;28;21170;-80
2024/01/28 12:20:07;;;;;;;6.90;2.90;;;6.40;99.90;;;;;;4953192;28;20035;-82
2024/01/28 12:22:37;;;;;;;12.00;5.05;;;6.40;99.90;;;;;;4966924;28;20271;-83
2024/01/28 12:25:18;;;;;;;12.52;7.00;;;6.50;99.90;;;;;;4966390;28;20027;-82
2024/01/28 12:27:44;;;;;;;12.13;5.35;;;6.50;99.90;;;;;;4967376;28;20042;-79
2024/01/28 12:30:12;;;;;;;9.93;4.20;;;6.50;99.90;;;;;;4938125;28;20678;-81
2024/01/28 12:32:39;;;;;;;10.73;5.60;;;6.50;99.90;;;;;;4968277;28;20058;-81
2024/01/28 12:35:07;;;;;;;12.65;5.57;;;6.50;99.90;;;;;;4937882;28;20483;-82
2024/01/28 12:37:35;;;;;;;15.63;6.82;;;6.60;99.90;;;;;;4950071;28;20050;-82
2024/01/28 12:40:02;;;;;;;17.65;8.02;;;6.60;99.90;;;;;;4937778;29;20039;-82
2024/01/28 12:42:30;;;;;;;14.95;5.90;;;6.60;99.90;;;;;;4933327;28;20043;-81
2024/01/28 12:44:56;;;;;;;11.05;5.20;;;6.60;99.90;;;;;;4968166;28;20479;-82
2024/01/28 12:47:23;;;;;;;8.20;3.70;;;6.70;99.90;;;;;;4935918;28;20039;-84
2024/01/28 12:49:49;;;;;;;6.00;2.90;;;6.70;99.90;;;;;;4952224;28;20043;-80
2024/01/28 12:52:15;;;;;;;5.93;2.85;;;6.70;99.90;;;;;;4950882;28;20047;-80